sensor_id;sensor_type;location;lat;lon;timestamp;temperature;humidity
73133;DHT22;61320;52.008;4.530;2023-04-25T00:02:18;8.80;72.52
73133;DHT22;61320;52.008;4.530;2023-04-25T00:04:44;8.80;72.44
73133;DHT22;61320;52.008;4.530;2023-04-25T00:07:10;8.76;72.79
73133;DHT22;61320;52.008;4.530;2023-04-25T00:09:36;8.72;72.35
73133;DHT22;61320;52.008;4.530;2023-04-25T00:12:02;8.73;72.41
73133;DHT22;61320;52.008;4.530;2023-04-25T00:14:28;8.66;72.51
73133;DHT22;61320;52.008;4.530;2023-04-25T00:16:54;8.58;72.30
73133;DHT22;61320;52.008;4.530;2023-04-25T00:19:19;8.52;72.09
73133;DHT22;61320;52.008;4.530;2023-04-25T00:21:45;8.49;73.08
73133;DHT22;61320;52.008;4.530;2023-04-25T00:24:12;8.42;72.56
73133;DHT22;61320;52.008;4.530;2023-04-25T00:26:38;8.42;73.13
73133;DHT22;61320;52.008;4.530;2023-04-25T00:29:03;8.37;72.96
73133;DHT22;61320;52.008;4.530;2023-04-25T00:31:29;8.35;73.08
73133;DHT22;61320;52.008;4.530;2023-04-25T00:33:55;8.29;73.22
73133;DHT22;61320;52.008;4.530;2023-04-25T00:36:20;8.25;72.88
73133;DHT22;61320;52.008;4.530;2023-04-25T00:38:46;8.18;72.88
73133;DHT22;61320;52.008;4.530;2023-04-25T00:41:12;8.17;73.47
73133;DHT22;61320;52.008;4.530;2023-04-25T00:43:39;8.12;73.43
73133;DHT22;61320;52.008;4.530;2023-04-25T00:46:05;8.10;73.42
73133;DHT22;61320;52.008;4.530;2023-04-25T00:48:31;8.05;73.48
73133;DHT22;61320;52.008;4.530;2023-04-25T00:50:59;8.02;73.69
73133;DHT22;61320;52.008;4.530;2023-04-25T00:53:27;8.01;73.94
73133;DHT22;61320;52.008;4.530;2023-04-25T00:55:53;8.01;73.98
73133;DHT22;61320;52.008;4.530;2023-04-25T00:58:20;7.97;73.96
73133;DHT22;61320;52.008;4.530;2023-04-25T01:00:48;7.95;74.26
73133;DHT22;61320;52.008;4.530;2023-04-25T01:03:15;7.91;74.38
73133;DHT22;61320;52.008;4.530;2023-04-25T01:05:46;7.93;74.60
73133;DHT22;61320;52.008;4.530;2023-04-25T01:08:13;7.97;74.84
73133;DHT22;61320;52.008;4.530;2023-04-25T01:10:39;7.98;74.73
73133;DHT22;61320;52.008;4.530;2023-04-25T01:13:05;8.01;74.51
73133;DHT22;61320;52.008;4.530;2023-04-25T01:15:30;8.05;74.71
73133;DHT22;61320;52.008;4.530;2023-04-25T01:17:57;8.05;74.39
73133;DHT22;61320;52.008;4.530;2023-04-25T01:20:23;8.05;74.19
73133;DHT22;61320;52.008;4.530;2023-04-25T01:22:53;8.02;74.07
73133;DHT22;61320;52.008;4.530;2023-04-25T01:25:21;7.98;74.09
73133;DHT22;61320;52.008;4.530;2023-04-25T01:27:46;7.93;73.76
73133;DHT22;61320;52.008;4.530;2023-04-25T01:30:13;7.90;73.77
73133;DHT22;61320;52.008;4.530;2023-04-25T01:32:40;7.81;73.82
73133;DHT22;61320;52.008;4.530;2023-04-25T01:35:07;7.79;73.60
73133;DHT22;61320;52.008;4.530;2023-04-25T01:37:41;7.77;73.45
73133;DHT22;61320;52.008;4.530;2023-04-25T01:40:10;7.71;73.21
73133;DHT22;61320;52.008;4.530;2023-04-25T01:42:39;7.69;73.12
73133;DHT22;61320;52.008;4.530;2023-04-25T01:45:06;7.69;73.32
73133;DHT22;61320;52.008;4.530;2023-04-25T01:47:32;7.62;72.81
73133;DHT22;61320;52.008;4.530;2023-04-25T01:50:01;7.60;73.35
73133;DHT22;61320;52.008;4.530;2023-04-25T01:52:27;7.59;73.29
73133;DHT22;61320;52.008;4.530;2023-04-25T01:54:54;7.59;73.47
73133;DHT22;61320;52.008;4.530;2023-04-25T01:57:19;7.58;73.48
73133;DHT22;61320;52.008;4.530;2023-04-25T01:59:46;7.59;73.52
73133;DHT22;61320;52.008;4.530;2023-04-25T02:02:11;7.62;73.80
73133;DHT22;61320;52.008;4.530;2023-04-25T02:04:37;7.65;73.82
73133;DHT22;61320;52.008;4.530;2023-04-25T02:07:03;7.66;73.40
73133;DHT22;61320;52.008;4.530;2023-04-25T02:09:28;7.69;73.56
73133;DHT22;61320;52.008;4.530;2023-04-25T02:11:54;7.74;73.55
73133;DHT22;61320;52.008;4.530;2023-04-25T02:14:19;7.77;73.50
73133;DHT22;61320;52.008;4.530;2023-04-25T02:16:45;7.81;73.59
73133;DHT22;61320;52.008;4.530;2023-04-25T02:19:12;7.83;73.43
73133;DHT22;61320;52.008;4.530;2023-04-25T02:21:37;7.84;73.24
73133;DHT22;61320;52.008;4.530;2023-04-25T02:24:03;7.89;74.21
73133;DHT22;61320;52.008;4.530;2023-04-25T02:26:29;7.93;74.56
73133;DHT22;61320;52.008;4.530;2023-04-25T02:28:58;7.95;75.20
73133;DHT22;61320;52.008;4.530;2023-04-25T02:31:24;8.00;75.28
73133;DHT22;61320;52.008;4.530;2023-04-25T02:33:49;8.05;75.59
73133;DHT22;61320;52.008;4.530;2023-04-25T02:36:15;8.10;75.69
73133;DHT22;61320;52.008;4.530;2023-04-25T02:38:40;8.14;75.86
73133;DHT22;61320;52.008;4.530;2023-04-25T02:41:06;8.17;75.70
73133;DHT22;61320;52.008;4.530;2023-04-25T02:43:31;8.17;75.77
73133;DHT22;61320;52.008;4.530;2023-04-25T02:45:57;8.25;75.73
73133;DHT22;61320;52.008;4.530;2023-04-25T02:48:22;8.25;75.77
73133;DHT22;61320;52.008;4.530;2023-04-25T02:50:48;8.25;75.88
73133;DHT22;61320;52.008;4.530;2023-04-25T02:53:13;8.29;75.88
73133;DHT22;61320;52.008;4.530;2023-04-25T02:55:39;8.32;75.78
73133;DHT22;61320;52.008;4.530;2023-04-25T02:58:04;8.32;75.65
73133;DHT22;61320;52.008;4.530;2023-04-25T03:00:30;8.29;75.09
73133;DHT22;61320;52.008;4.530;2023-04-25T03:02:56;8.28;73.70
73133;DHT22;61320;52.008;4.530;2023-04-25T03:05:21;8.28;74.74
73133;DHT22;61320;52.008;4.530;2023-04-25T03:07:47;8.31;74.63
73133;DHT22;61320;52.008;4.530;2023-04-25T03:10:12;8.37;73.89
73133;DHT22;61320;52.008;4.530;2023-04-25T03:12:38;8.39;74.13
73133;DHT22;61320;52.008;4.530;2023-04-25T03:15:04;8.39;72.84
73133;DHT22;61320;52.008;4.530;2023-04-25T03:17:29;8.41;73.71
73133;DHT22;61320;52.008;4.530;2023-04-25T03:19:55;8.39;73.50
73133;DHT22;61320;52.008;4.530;2023-04-25T03:22:22;8.42;72.75
73133;DHT22;61320;52.008;4.530;2023-04-25T03:24:47;8.42;72.97
73133;DHT22;61320;52.008;4.530;2023-04-25T03:27:13;8.44;73.96
73133;DHT22;61320;52.008;4.530;2023-04-25T03:29:38;8.48;73.10
73133;DHT22;61320;52.008;4.530;2023-04-25T03:32:05;8.49;73.62
73133;DHT22;61320;52.008;4.530;2023-04-25T03:34:31;8.49;73.26
73133;DHT22;61320;52.008;4.530;2023-04-25T03:36:56;8.49;74.16
73133;DHT22;61320;52.008;4.530;2023-04-25T03:39:22;8.50;74.15
73133;DHT22;61320;52.008;4.530;2023-04-25T03:41:47;8.58;73.60
73133;DHT22;61320;52.008;4.530;2023-04-25T03:44:13;8.59;73.73
73133;DHT22;61320;52.008;4.530;2023-04-25T03:46:39;8.62;73.11
73133;DHT22;61320;52.008;4.530;2023-04-25T03:49:04;8.65;74.05
73133;DHT22;61320;52.008;4.530;2023-04-25T03:51:30;8.68;74.18
73133;DHT22;61320;52.008;4.530;2023-04-25T03:53:56;8.70;74.18
73133;DHT22;61320;52.008;4.530;2023-04-25T03:56:21;8.73;73.98
73133;DHT22;61320;52.008;4.530;2023-04-25T03:58:47;8.77;73.86
73133;DHT22;61320;52.008;4.530;2023-04-25T04:01:13;8.80;74.01
73133;DHT22;61320;52.008;4.530;2023-04-25T04:03:38;8.77;74.57
73133;DHT22;61320;52.008;4.530;2023-04-25T04:06:05;8.81;74.39
73133;DHT22;61320;52.008;4.530;2023-04-25T04:08:31;8.80;73.97
73133;DHT22;61320;52.008;4.530;2023-04-25T04:10:57;8.84;73.90
73133;DHT22;61320;52.008;4.530;2023-04-25T04:13:23;8.81;74.02
73133;DHT22;61320;52.008;4.530;2023-04-25T04:15:49;8.83;73.71
73133;DHT22;61320;52.008;4.530;2023-04-25T04:18:14;8.84;73.71
73133;DHT22;61320;52.008;4.530;2023-04-25T04:20:40;8.86;73.33
73133;DHT22;61320;52.008;4.530;2023-04-25T04:23:05;8.86;73.28
73133;DHT22;61320;52.008;4.530;2023-04-25T04:25:31;8.84;73.32
73133;DHT22;61320;52.008;4.530;2023-04-25T04:27:56;8.86;72.40
73133;DHT22;61320;52.008;4.530;2023-04-25T04:30:23;8.87;72.46
73133;DHT22;61320;52.008;4.530;2023-04-25T04:32:50;8.87;72.51
73133;DHT22;61320;52.008;4.530;2023-04-25T04:35:15;8.84;72.48
73133;DHT22;61320;52.008;4.530;2023-04-25T04:37:41;8.87;72.61
73133;DHT22;61320;52.008;4.530;2023-04-25T04:40:07;8.80;72.84
73133;DHT22;61320;52.008;4.530;2023-04-25T04:42:33;8.81;72.59
73133;DHT22;61320;52.008;4.530;2023-04-25T04:44:58;8.80;72.86
73133;DHT22;61320;52.008;4.530;2023-04-25T04:47:26;8.81;72.69
73133;DHT22;61320;52.008;4.530;2023-04-25T04:49:56;8.81;72.06
73133;DHT22;61320;52.008;4.530;2023-04-25T04:52:21;8.83;72.76
73133;DHT22;61320;52.008;4.530;2023-04-25T04:54:46;8.79;71.90
73133;DHT22;61320;52.008;4.530;2023-04-25T04:57:12;8.77;72.14
73133;DHT22;61320;52.008;4.530;2023-04-25T04:59:37;8.79;72.10
73133;DHT22;61320;52.008;4.530;2023-04-25T05:02:03;8.80;71.88
73133;DHT22;61320;52.008;4.530;2023-04-25T05:04:28;8.83;72.83
73133;DHT22;61320;52.008;4.530;2023-04-25T05:06:54;8.86;72.82
73133;DHT22;61320;52.008;4.530;2023-04-25T05:09:19;8.87;72.59
73133;DHT22;61320;52.008;4.530;2023-04-25T05:11:45;8.91;72.92
73133;DHT22;61320;52.008;4.530;2023-04-25T05:14:12;8.93;73.02
73133;DHT22;61320;52.008;4.530;2023-04-25T05:16:38;8.97;73.17
73133;DHT22;61320;52.008;4.530;2023-04-25T05:19:03;8.90;71.75
73133;DHT22;61320;52.008;4.530;2023-04-25T05:21:29;8.97;72.52
73133;DHT22;61320;52.008;4.530;2023-04-25T05:23:54;8.97;72.96
73133;DHT22;61320;52.008;4.530;2023-04-25T05:26:20;8.97;71.92
73133;DHT22;61320;52.008;4.530;2023-04-25T05:28:46;8.90;72.92
73133;DHT22;61320;52.008;4.530;2023-04-25T05:31:11;8.91;72.80
73133;DHT22;61320;52.008;4.530;2023-04-25T05:33:37;8.93;72.59
73133;DHT22;61320;52.008;4.530;2023-04-25T05:36:03;8.91;72.15
73133;DHT22;61320;52.008;4.530;2023-04-25T05:38:28;8.86;71.45
73133;DHT22;61320;52.008;4.530;2023-04-25T05:40:54;8.83;70.64
73133;DHT22;61320;52.008;4.530;2023-04-25T05:43:20;8.76;70.62
73133;DHT22;61320;52.008;4.530;2023-04-25T05:45:46;8.75;69.96
73133;DHT22;61320;52.008;4.530;2023-04-25T05:48:12;8.80;70.88
73133;DHT22;61320;52.008;4.530;2023-04-25T05:50:37;8.76;69.86
73133;DHT22;61320;52.008;4.530;2023-04-25T05:53:02;8.76;70.06
73133;DHT22;61320;52.008;4.530;2023-04-25T05:55:28;8.73;69.39
73133;DHT22;61320;52.008;4.530;2023-04-25T05:57:53;8.70;68.87
73133;DHT22;61320;52.008;4.530;2023-04-25T06:00:19;8.75;68.96
73133;DHT22;61320;52.008;4.530;2023-04-25T06:02:44;8.77;68.85
73133;DHT22;61320;52.008;4.530;2023-04-25T06:05:10;8.73;69.07
73133;DHT22;61320;52.008;4.530;2023-04-25T06:07:35;8.69;68.44
73133;DHT22;61320;52.008;4.530;2023-04-25T06:10:00;8.66;68.78
73133;DHT22;61320;52.008;4.530;2023-04-25T06:12:26;8.62;70.53
73133;DHT22;61320;52.008;4.530;2023-04-25T06:14:52;8.58;71.95
73133;DHT22;61320;52.008;4.530;2023-04-25T06:17:17;8.55;72.70
73133;DHT22;61320;52.008;4.530;2023-04-25T06:19:43;8.46;72.89
73133;DHT22;61320;52.008;4.530;2023-04-25T06:22:08;8.50;73.15
73133;DHT22;61320;52.008;4.530;2023-04-25T06:24:34;8.60;74.27
73133;DHT22;61320;52.008;4.530;2023-04-25T06:27:00;8.60;72.53
73133;DHT22;61320;52.008;4.530;2023-04-25T06:29:25;8.63;73.33
73133;DHT22;61320;52.008;4.530;2023-04-25T06:31:51;8.65;73.22
73133;DHT22;61320;52.008;4.530;2023-04-25T06:34:17;8.79;74.27
73133;DHT22;61320;52.008;4.530;2023-04-25T06:36:42;8.86;74.04
73133;DHT22;61320;52.008;4.530;2023-04-25T06:39:09;8.91;74.86
73133;DHT22;61320;52.008;4.530;2023-04-25T06:41:34;9.01;73.59
73133;DHT22;61320;52.008;4.530;2023-04-25T06:44:00;9.04;74.50
73133;DHT22;61320;52.008;4.530;2023-04-25T06:46:26;9.08;74.54
73133;DHT22;61320;52.008;4.530;2023-04-25T06:48:51;9.08;73.08
73133;DHT22;61320;52.008;4.530;2023-04-25T06:51:17;9.16;73.32
73133;DHT22;61320;52.008;4.530;2023-04-25T06:53:42;9.26;73.68
73133;DHT22;61320;52.008;4.530;2023-04-25T06:56:08;9.32;74.48
73133;DHT22;61320;52.008;4.530;2023-04-25T06:58:33;9.41;73.44
73133;DHT22;61320;52.008;4.530;2023-04-25T07:00:59;9.57;70.77
73133;DHT22;61320;52.008;4.530;2023-04-25T07:03:24;9.61;73.80
73133;DHT22;61320;52.008;4.530;2023-04-25T07:05:50;9.68;73.33
73133;DHT22;61320;52.008;4.530;2023-04-25T07:08:16;9.82;73.07
73133;DHT22;61320;52.008;4.530;2023-04-25T07:10:42;9.92;73.24
73133;DHT22;61320;52.008;4.530;2023-04-25T07:13:07;10.00;72.09
73133;DHT22;61320;52.008;4.530;2023-04-25T07:15:33;10.06;72.55
73133;DHT22;61320;52.008;4.530;2023-04-25T07:17:58;10.14;71.85
73133;DHT22;61320;52.008;4.530;2023-04-25T07:20:24;10.14;72.03
73133;DHT22;61320;52.008;4.530;2023-04-25T07:22:50;10.23;71.63
73133;DHT22;61320;52.008;4.530;2023-04-25T07:25:16;10.48;71.93
73133;DHT22;61320;52.008;4.530;2023-04-25T07:27:42;10.82;70.43
73133;DHT22;61320;52.008;4.530;2023-04-25T07:30:08;11.18;70.07
73133;DHT22;61320;52.008;4.530;2023-04-25T07:32:33;11.60;68.68
73133;DHT22;61320;52.008;4.530;2023-04-25T07:34:59;11.73;67.33
73133;DHT22;61320;52.008;4.530;2023-04-25T07:37:24;11.80;68.30
73133;DHT22;61320;52.008;4.530;2023-04-25T07:39:50;11.71;68.73
73133;DHT22;61320;52.008;4.530;2023-04-25T07:42:16;11.62;68.40
73133;DHT22;61320;52.008;4.530;2023-04-25T07:44:41;11.50;67.94
73133;DHT22;61320;52.008;4.530;2023-04-25T07:47:08;11.33;67.32
73133;DHT22;61320;52.008;4.530;2023-04-25T07:49:34;11.25;67.63
73133;DHT22;61320;52.008;4.530;2023-04-25T07:52:01;11.27;68.45
73133;DHT22;61320;52.008;4.530;2023-04-25T07:54:27;11.36;67.06
73133;DHT22;61320;52.008;4.530;2023-04-25T07:56:53;11.57;67.98
73133;DHT22;61320;52.008;4.530;2023-04-25T07:59:18;11.62;65.97
73133;DHT22;61320;52.008;4.530;2023-04-25T08:01:44;11.59;63.76
73133;DHT22;61320;52.008;4.530;2023-04-25T08:04:09;11.62;64.28
73133;DHT22;61320;52.008;4.530;2023-04-25T08:06:35;11.77;64.76
73133;DHT22;61320;52.008;4.530;2023-04-25T08:09:01;11.85;64.12
73133;DHT22;61320;52.008;4.530;2023-04-25T08:11:27;11.93;64.21
73133;DHT22;61320;52.008;4.530;2023-04-25T08:13:53;11.78;62.55
73133;DHT22;61320;52.008;4.530;2023-04-25T08:16:18;11.75;62.41
73133;DHT22;61320;52.008;4.530;2023-04-25T08:18:44;11.60;63.70
73133;DHT22;61320;52.008;4.530;2023-04-25T08:21:09;11.52;63.53
73133;DHT22;61320;52.008;4.530;2023-04-25T08:23:37;11.40;62.93
73133;DHT22;61320;52.008;4.530;2023-04-25T08:26:02;11.26;63.71
73133;DHT22;61320;52.008;4.530;2023-04-25T08:28:28;11.19;62.30
73133;DHT22;61320;52.008;4.530;2023-04-25T08:30:54;11.25;64.14
73133;DHT22;61320;52.008;4.530;2023-04-25T08:33:19;11.27;61.15
73133;DHT22;61320;52.008;4.530;2023-04-25T08:35:45;11.40;63.99
73133;DHT22;61320;52.008;4.530;2023-04-25T08:38:11;11.60;62.19
73133;DHT22;61320;52.008;4.530;2023-04-25T08:40:38;11.85;62.29
73133;DHT22;61320;52.008;4.530;2023-04-25T08:43:07;11.98;62.15
73133;DHT22;61320;52.008;4.530;2023-04-25T08:45:41;11.98;63.79
73133;DHT22;61320;52.008;4.530;2023-04-25T08:48:15;11.87;62.63
73133;DHT22;61320;52.008;4.530;2023-04-25T08:50:52;11.94;63.39
73133;DHT22;61320;52.008;4.530;2023-04-25T08:53:29;12.06;62.05
73133;DHT22;61320;52.008;4.530;2023-04-25T08:55:56;12.22;61.62
73133;DHT22;61320;52.008;4.530;2023-04-25T08:58:23;12.31;60.06
73133;DHT22;61320;52.008;4.530;2023-04-25T09:00:50;12.48;60.79
73133;DHT22;61320;52.008;4.530;2023-04-25T09:03:16;12.49;60.49
73133;DHT22;61320;52.008;4.530;2023-04-25T09:05:42;12.63;62.26
73133;DHT22;61320;52.008;4.530;2023-04-25T09:08:07;12.72;60.40
73133;DHT22;61320;52.008;4.530;2023-04-25T09:10:33;12.80;59.90
73133;DHT22;61320;52.008;4.530;2023-04-25T09:15:32;12.99;58.99
73133;DHT22;61320;52.008;4.530;2023-04-25T09:17:59;13.14;58.29
73133;DHT22;61320;52.008;4.530;2023-04-25T09:20:25;13.14;55.83
73133;DHT22;61320;52.008;4.530;2023-04-25T09:23:01;13.28;57.01
73133;DHT22;61320;52.008;4.530;2023-04-25T09:25:34;13.27;55.38
73133;DHT22;61320;52.008;4.530;2023-04-25T09:28:04;13.10;55.98
73133;DHT22;61320;52.008;4.530;2023-04-25T09:30:32;13.07;55.67
73133;DHT22;61320;52.008;4.530;2023-04-25T09:33:08;13.35;55.53
73133;DHT22;61320;52.008;4.530;2023-04-25T09:35:41;13.42;55.56
73133;DHT22;61320;52.008;4.530;2023-04-25T09:38:11;13.55;55.50
73133;DHT22;61320;52.008;4.530;2023-04-25T09:40:43;13.98;55.08
73133;DHT22;61320;52.008;4.530;2023-04-25T09:43:19;14.47;53.32
73133;DHT22;61320;52.008;4.530;2023-04-25T09:45:45;14.85;54.32
73133;DHT22;61320;52.008;4.530;2023-04-25T09:48:12;15.05;53.20
73133;DHT22;61320;52.008;4.530;2023-04-25T09:50:41;15.29;53.16
73133;DHT22;61320;52.008;4.530;2023-04-25T09:53:07;15.00;52.85
73133;DHT22;61320;52.008;4.530;2023-04-25T09:55:34;14.93;55.92
73133;DHT22;61320;52.008;4.530;2023-04-25T09:58:04;14.88;55.92
73133;DHT22;61320;52.008;4.530;2023-04-25T10:00:34;14.57;54.91
73133;DHT22;61320;52.008;4.530;2023-04-25T10:03:01;14.31;53.63
73133;DHT22;61320;52.008;4.530;2023-04-25T10:05:30;13.96;58.74
73133;DHT22;61320;52.008;4.530;2023-04-25T10:07:59;13.63;58.55
73133;DHT22;61320;52.008;4.530;2023-04-25T10:10:26;13.39;60.50
73133;DHT22;61320;52.008;4.530;2023-04-25T10:12:54;13.14;61.08
73133;DHT22;61320;52.008;4.530;2023-04-25T10:15:21;13.76;61.79
73133;DHT22;61320;52.008;4.530;2023-04-25T10:17:49;14.69;57.57
73133;DHT22;61320;52.008;4.530;2023-04-25T10:20:14;15.29;56.04
73133;DHT22;61320;52.008;4.530;2023-04-25T10:22:47;15.23;54.21
73133;DHT22;61320;52.008;4.530;2023-04-25T10:25:14;15.06;54.50
73133;DHT22;61320;52.008;4.530;2023-04-25T10:27:40;14.82;55.13
73133;DHT22;61320;52.008;4.530;2023-04-25T10:30:15;14.52;55.76
73133;DHT22;61320;52.008;4.530;2023-04-25T10:32:42;14.30;55.70
73133;DHT22;61320;52.008;4.530;2023-04-25T10:35:16;14.27;56.90
73133;DHT22;61320;52.008;4.530;2023-04-25T10:38:04;14.27;54.29
73133;DHT22;61320;52.008;4.530;2023-04-25T10:40:31;14.89;53.82
73133;DHT22;61320;52.008;4.530;2023-04-25T10:46:25;16.01;51.54
73133;DHT22;61320;52.008;4.530;2023-04-25T10:48:59;16.30;48.78
73133;DHT22;61320;52.008;4.530;2023-04-25T10:51:27;16.33;44.34
73133;DHT22;61320;52.008;4.530;2023-04-25T10:53:56;15.98;47.71
73133;DHT22;61320;52.008;4.530;2023-04-25T10:56:26;16.30;44.68
73133;DHT22;61320;52.008;4.530;2023-04-25T11:01:42;17.46;43.32
73133;DHT22;61320;52.008;4.530;2023-04-25T11:09:24;19.43;39.97
73133;DHT22;61320;52.008;4.530;2023-04-25T11:11:54;19.85;39.67
73133;DHT22;61320;52.008;4.530;2023-04-25T11:14:20;20.37;38.14
73133;DHT22;61320;52.008;4.530;2023-04-25T11:16:45;20.59;38.55
73133;DHT22;61320;52.008;4.530;2023-04-25T11:19:11;20.97;38.36
73133;DHT22;61320;52.008;4.530;2023-04-25T11:21:36;21.30;35.73
73133;DHT22;61320;52.008;4.530;2023-04-25T11:24:02;21.05;35.77
73133;DHT22;61320;52.008;4.530;2023-04-25T11:26:30;20.76;36.09
73133;DHT22;61320;52.008;4.530;2023-04-25T11:33:53;19.71;38.41
73133;DHT22;61320;52.008;4.530;2023-04-25T11:36:19;19.81;37.13
73133;DHT22;61320;52.008;4.530;2023-04-25T11:38:45;19.73;36.15
73133;DHT22;61320;52.008;4.530;2023-04-25T11:41:11;19.91;37.48
73133;DHT22;61320;52.008;4.530;2023-04-25T11:43:37;20.11;36.22
73133;DHT22;61320;52.008;4.530;2023-04-25T11:46:06;19.73;35.86
73133;DHT22;61320;52.008;4.530;2023-04-25T11:48:40;19.51;39.29
73133;DHT22;61320;52.008;4.530;2023-04-25T11:51:07;19.63;37.56
73133;DHT22;61320;52.008;4.530;2023-04-25T11:53:32;19.63;38.45
73133;DHT22;61320;52.008;4.530;2023-04-25T11:55:58;19.68;36.05
73133;DHT22;61320;52.008;4.530;2023-04-25T11:58:25;19.50;37.18
73133;DHT22;61320;52.008;4.530;2023-04-25T12:00:51;19.56;37.26
73133;DHT22;61320;52.008;4.530;2023-04-25T12:03:18;19.58;34.76
73133;DHT22;61320;52.008;4.530;2023-04-25T12:05:45;19.36;35.85
73133;DHT22;61320;52.008;4.530;2023-04-25T12:08:15;19.16;36.04
73133;DHT22;61320;52.008;4.530;2023-04-25T12:10:42;18.84;36.45
73133;DHT22;61320;52.008;4.530;2023-04-25T12:13:25;18.36;36.72
73133;DHT22;61320;52.008;4.530;2023-04-25T12:15:53;17.73;37.62
73133;DHT22;61320;52.008;4.530;2023-04-25T12:18:25;17.25;39.95
73133;DHT22;61320;52.008;4.530;2023-04-25T12:20:53;16.94;41.06
73133;DHT22;61320;52.008;4.530;2023-04-25T12:23:27;16.90;40.95
73133;DHT22;61320;52.008;4.530;2023-04-25T12:25:53;16.83;42.19
73133;DHT22;61320;52.008;4.530;2023-04-25T12:28:21;16.77;42.17
73133;DHT22;61320;52.008;4.530;2023-04-25T12:30:56;16.55;40.77
73133;DHT22;61320;52.008;4.530;2023-04-25T12:33:24;16.38;40.02
73133;DHT22;61320;52.008;4.530;2023-04-25T12:35:49;16.19;41.01
73133;DHT22;61320;52.008;4.530;2023-04-25T12:38:24;16.12;42.96
73133;DHT22;61320;52.008;4.530;2023-04-25T12:40:51;16.06;43.43
73133;DHT22;61320;52.008;4.530;2023-04-25T12:43:16;16.01;44.11
73133;DHT22;61320;52.008;4.530;2023-04-25T12:45:43;15.90;46.10
73133;DHT22;61320;52.008;4.530;2023-04-25T12:48:09;15.71;45.15
73133;DHT22;61320;52.008;4.530;2023-04-25T12:50:35;15.56;44.33
73133;DHT22;61320;52.008;4.530;2023-04-25T12:53:00;15.44;44.56
73133;DHT22;61320;52.008;4.530;2023-04-25T12:55:26;15.42;45.34
73133;DHT22;61320;52.008;4.530;2023-04-25T13:00:17;15.40;44.19
73133;DHT22;61320;52.008;4.530;2023-04-25T13:02:45;15.44;45.19
73133;DHT22;61320;52.008;4.530;2023-04-25T13:05:12;15.49;45.72
73133;DHT22;61320;52.008;4.530;2023-04-25T13:07:38;15.60;44.30
73133;DHT22;61320;52.008;4.530;2023-04-25T13:10:04;15.73;44.16
73133;DHT22;61320;52.008;4.530;2023-04-25T13:12:30;15.67;45.01
73133;DHT22;61320;52.008;4.530;2023-04-25T13:14:56;15.46;45.23
73133;DHT22;61320;52.008;4.530;2023-04-25T13:17:22;15.35;46.85
73133;DHT22;61320;52.008;4.530;2023-04-25T13:19:47;15.37;45.86
73133;DHT22;61320;52.008;4.530;2023-04-25T13:22:13;15.42;46.51
73133;DHT22;61320;52.008;4.530;2023-04-25T13:24:40;15.50;45.27
73133;DHT22;61320;52.008;4.530;2023-04-25T13:27:06;15.53;45.34
73133;DHT22;61320;52.008;4.530;2023-04-25T13:29:31;15.57;45.49
73133;DHT22;61320;52.008;4.530;2023-04-25T13:31:59;15.61;46.08
73133;DHT22;61320;52.008;4.530;2023-04-25T13:34:26;15.64;45.90
73133;DHT22;61320;52.008;4.530;2023-04-25T13:36:51;15.56;46.70
73133;DHT22;61320;52.008;4.530;2023-04-25T13:39:17;15.56;46.49
73133;DHT22;61320;52.008;4.530;2023-04-25T13:41:43;15.44;47.50
73133;DHT22;61320;52.008;4.530;2023-04-25T13:44:08;15.36;47.54
73133;DHT22;61320;52.008;4.530;2023-04-25T13:46:34;15.39;48.78
73133;DHT22;61320;52.008;4.530;2023-04-25T13:48:59;15.44;46.92
73133;DHT22;61320;52.008;4.530;2023-04-25T13:51:26;15.44;46.87
73133;DHT22;61320;52.008;4.530;2023-04-25T13:53:52;15.54;47.45
73133;DHT22;61320;52.008;4.530;2023-04-25T13:56:18;15.63;45.30
73133;DHT22;61320;52.008;4.530;2023-04-25T13:58:44;15.73;45.61
73133;DHT22;61320;52.008;4.530;2023-04-25T14:01:10;15.60;44.37
73133;DHT22;61320;52.008;4.530;2023-04-25T14:03:38;15.51;45.11
73133;DHT22;61320;52.008;4.530;2023-04-25T14:06:04;15.47;44.56
73133;DHT22;61320;52.008;4.530;2023-04-25T14:08:30;15.50;44.29
73133;DHT22;61320;52.008;4.530;2023-04-25T14:10:55;15.57;45.02
73133;DHT22;61320;52.008;4.530;2023-04-25T14:13:21;15.60;44.14
73133;DHT22;61320;52.008;4.530;2023-04-25T14:15:48;15.57;42.18
73133;DHT22;61320;52.008;4.530;2023-04-25T14:18:15;15.51;41.71
73133;DHT22;61320;52.008;4.530;2023-04-25T14:20:41;15.51;43.50
73133;DHT22;61320;52.008;4.530;2023-04-25T14:23:06;15.53;43.56
73133;DHT22;61320;52.008;4.530;2023-04-25T14:25:32;15.51;43.89
73133;DHT22;61320;52.008;4.530;2023-04-25T14:27:58;15.44;43.43
73133;DHT22;61320;52.008;4.530;2023-04-25T14:30:23;15.39;43.06
73133;DHT22;61320;52.008;4.530;2023-04-25T14:32:49;15.29;42.55
73133;DHT22;61320;52.008;4.530;2023-04-25T14:35:15;15.13;42.20
73133;DHT22;61320;52.008;4.530;2023-04-25T14:37:41;14.96;43.46
73133;DHT22;61320;52.008;4.530;2023-04-25T14:40:07;14.86;43.02
73133;DHT22;61320;52.008;4.530;2023-04-25T14:42:37;14.78;44.88
73133;DHT22;61320;52.008;4.530;2023-04-25T14:45:04;14.81;44.33
73133;DHT22;61320;52.008;4.530;2023-04-25T14:47:31;14.75;45.00
73133;DHT22;61320;52.008;4.530;2023-04-25T14:49:57;14.67;45.35
73133;DHT22;61320;52.008;4.530;2023-04-25T14:52:22;14.75;46.95
73133;DHT22;61320;52.008;4.530;2023-04-25T14:54:47;14.79;45.90
73133;DHT22;61320;52.008;4.530;2023-04-25T14:57:13;14.84;46.33
73133;DHT22;61320;52.008;4.530;2023-04-25T14:59:39;14.78;46.15
73133;DHT22;61320;52.008;4.530;2023-04-25T15:02:05;14.72;45.74
73133;DHT22;61320;52.008;4.530;2023-04-25T15:04:31;14.52;45.11
73133;DHT22;61320;52.008;4.530;2023-04-25T15:06:56;14.33;45.53
73133;DHT22;61320;52.008;4.530;2023-04-25T15:09:22;14.26;46.53
73133;DHT22;61320;52.008;4.530;2023-04-25T15:11:49;14.09;47.90
73133;DHT22;61320;52.008;4.530;2023-04-25T15:14:19;13.96;48.08
73133;DHT22;61320;52.008;4.530;2023-04-25T15:16:44;13.75;47.83
73133;DHT22;61320;52.008;4.530;2023-04-25T15:19:10;13.54;46.56
73133;DHT22;61320;52.008;4.530;2023-04-25T15:21:36;13.35;46.61
73133;DHT22;61320;52.008;4.530;2023-04-25T15:24:02;13.14;47.82
73133;DHT22;61320;52.008;4.530;2023-04-25T15:26:27;13.03;48.96
73133;DHT22;61320;52.008;4.530;2023-04-25T15:28:53;12.93;50.28
73133;DHT22;61320;52.008;4.530;2023-04-25T15:31:19;12.80;49.08
73133;DHT22;61320;52.008;4.530;2023-04-25T15:33:45;12.69;49.07
73133;DHT22;61320;52.008;4.530;2023-04-25T15:36:10;12.73;49.50
73133;DHT22;61320;52.008;4.530;2023-04-25T15:38:36;12.84;48.83
73133;DHT22;61320;52.008;4.530;2023-04-25T15:41:02;13.01;48.02
73133;DHT22;61320;52.008;4.530;2023-04-25T15:43:28;13.17;49.11
73133;DHT22;61320;52.008;4.530;2023-04-25T15:45:54;13.27;49.11
73133;DHT22;61320;52.008;4.530;2023-04-25T15:48:20;13.22;48.64
73133;DHT22;61320;52.008;4.530;2023-04-25T15:50:46;13.17;47.92
73133;DHT22;61320;52.008;4.530;2023-04-25T15:53:11;13.21;48.61
73133;DHT22;61320;52.008;4.530;2023-04-25T15:55:38;13.12;47.87